Time;durP1;ratioP1;P1;durP2;ratioP2;P2;SDS_P1;SDS_P2;PMS_P1;PMS_P2;Temp;Humidity;BMP_temperature;BMP_pressure;BME280_temperature;BME280_humidity;BME280_pressure;Samples;Min_cycle;Max_cycle;Signal;HPM_P1;HPM_P2
2021/03/19 00:01:07;;;;;;;6.00;1.30;;;;;;;;;;5032183;28;20112;-57
2021/03/19 00:03:33;;;;;;;10.32;1.30;;;;;;;;;;5032851;28;20145;-56
2021/03/19 00:05:59;;;;;;;6.60;1.15;;;;;;;;;;5031585;28;20579;-57
2021/03/19 00:08:25;;;;;;;6.40;1.42;;;;;;;;;;5026411;28;20494;-56
2021/03/19 00:10:52;;;;;;;7.05;1.55;;;;;;;;;;5027067;28;20121;-57
2021/03/19 00:13:18;;;;;;;6.57;1.75;;;;;;;;;;5025444;28;20374;-58
2021/03/19 00:15:44;;;;;;;4.65;1.42;;;;;;;;;;5024754;28;20052;-57
2021/03/19 00:18:09;;;;;;;13.35;1.70;;;;;;;;;;5025799;28;20041;-57
2021/03/19 00:20:37;;;;;;;5.57;1.30;;;;;;;;;;5027118;28;20037;-58
2021/03/19 00:23:03;;;;;;;5.55;1.40;;;;;;;;;;5029044;28;20059;-59
2021/03/19 00:25:29;;;;;;;7.03;1.35;;;;;;;;;;5026958;28;20154;-58
2021/03/19 00:27:55;;;;;;;8.07;1.33;;;;;;;;;;5023917;28;20037;-57
2021/03/19 00:30:22;;;;;;;6.10;1.27;;;;;;;;;;5020289;28;20770;-58
2021/03/19 00:32:48;;;;;;;4.68;1.20;;;;;;;;;;5025391;28;20216;-57
2021/03/19 00:35:13;;;;;;;6.07;1.10;;;;;;;;;;5009684;28;20501;-58
2021/03/19 00:37:40;;;;;;;6.68;1.33;;;;;;;;;;5026022;28;20036;-58
2021/03/19 00:40:07;;;;;;;9.95;1.40;;;;;;;;;;5025759;28;20826;-60
2021/03/19 00:42:33;;;;;;;5.78;1.67;;;;;;;;;;5027126;28;20048;-57
2021/03/19 00:44:59;;;;;;;5.90;1.60;;;;;;;;;;5025956;28;20255;-57
2021/03/19 00:47:25;;;;;;;8.00;1.23;;;;;;;;;;5025731;28;20084;-58
2021/03/19 00:49:51;;;;;;;9.05;1.13;;;;;;;;;;5028148;28;20045;-57
2021/03/19 00:52:17;;;;;;;7.75;1.30;;;;;;;;;;5016151;28;22127;-57
2021/03/19 00:54:43;;;;;;;6.25;1.15;;;;;;;;;;5009753;28;20409;-56
2021/03/19 00:57:09;;;;;;;7.03;1.60;;;;;;;;;;5011261;28;20145;-55
2021/03/19 00:59:35;;;;;;;4.47;1.40;;;;;;;;;;5011322;28;20044;-56
2021/03/19 01:02:01;;;;;;;6.38;1.23;;;;;;;;;;5012942;28;20524;-59
2021/03/19 01:04:27;;;;;;;6.35;1.70;;;;;;;;;;5011346;28;20592;-56
2021/03/19 01:06:52;;;;;;;9.45;1.77;;;;;;;;;;5012909;28;20033;-56
2021/03/19 01:09:18;;;;;;;7.10;1.80;;;;;;;;;;5013146;28;20041;-59
2021/03/19 01:11:44;;;;;;;6.25;1.70;;;;;;;;;;5018341;28;20037;-58
2021/03/19 01:14:10;;;;;;;8.98;1.80;;;;;;;;;;5018056;28;20114;-58
2021/03/19 01:16:36;;;;;;;7.95;1.67;;;;;;;;;;5015536;28;20394;-58
2021/03/19 01:19:03;;;;;;;16.45;2.20;;;;;;;;;;5016383;28;20045;-60
2021/03/19 01:21:28;;;;;;;13.07;2.53;;;;;;;;;;5003013;28;20145;-58
2021/03/19 01:23:55;;;;;;;14.32;2.53;;;;;;;;;;4999469;28;20087;-59
2021/03/19 01:26:20;;;;;;;12.43;2.30;;;;;;;;;;5005891;28;20038;-58
2021/03/19 01:28:46;;;;;;;12.30;2.40;;;;;;;;;;5007077;28;20064;-59
2021/03/19 01:31:16;;;;;;;13.55;1.83;;;;;;;;;;5009279;28;20454;-57
2021/03/19 01:33:42;;;;;;;11.10;1.88;;;;;;;;;;5008222;28;20037;-57
2021/03/19 01:36:08;;;;;;;12.10;2.00;;;;;;;;;;5008418;28;20138;-56
2021/03/19 01:38:34;;;;;;;11.60;2.50;;;;;;;;;;5004155;28;20038;-56
2021/03/19 01:41:01;;;;;;;7.65;1.95;;;;;;;;;;5007095;28;20045;-57
2021/03/19 01:43:29;;;;;;;6.75;1.70;;;;;;;;;;5006161;28;20050;-57
2021/03/19 01:46:14;;;;;;;8.13;2.00;;;;;;;;;;5005255;28;20056;-56
2021/03/19 01:48:58;;;;;;;5.63;1.50;;;;;;;;;;5006747;28;20060;-56
2021/03/19 01:51:43;;;;;;;11.48;2.20;;;;;;;;;;4999632;28;20526;-57
2021/03/19 01:54:27;;;;;;;23.42;2.72;;;;;;;;;;5006771;28;20037;-56
2021/03/19 01:57:11;;;;;;;19.60;2.80;;;;;;;;;;5012711;28;20037;-56
2021/03/19 01:59:55;;;;;;;18.60;2.70;;;;;;;;;;5012349;28;20046;-54
2021/03/19 02:02:39;;;;;;;12.45;2.65;;;;;;;;;;5012958;28;20118;-57
2021/03/19 02:05:24;;;;;;;19.08;2.35;;;;;;;;;;5013818;28;20348;-55
2021/03/19 02:08:08;;;;;;;17.95;2.40;;;;;;;;;;5010714;28;20045;-56
2021/03/19 02:10:52;;;;;;;14.35;2.28;;;;;;;;;;5011421;28;20049;-57
2021/03/19 02:13:36;;;;;;;15.38;2.78;;;;;;;;;;5012064;28;20538;-56
2021/03/19 02:16:20;;;;;;;16.10;2.40;;;;;;;;;;5012645;28;20132;-56
2021/03/19 02:19:05;;;;;;;13.57;2.20;;;;;;;;;;5013062;28;20533;-57
2021/03/19 02:21:49;;;;;;;9.45;1.88;;;;;;;;;;5013052;28;20048;-55
2021/03/19 02:24:33;;;;;;;8.43;2.08;;;;;;;;;;5011702;28;20041;-56
2021/03/19 02:27:18;;;;;;;7.72;1.50;;;;;;;;;;5006111;28;20490;-56
2021/03/19 02:30:02;;;;;;;7.80;1.55;;;;;;;;;;5012497;28;20201;-56
2021/03/19 02:32:28;;;;;;;12.82;1.80;;;;;;;;;;5011647;28;20495;-56
2021/03/19 02:35:02;;;;;;;10.95;2.17;;;;;;;;;;5014450;28;20044;-58
2021/03/19 02:37:29;;;;;;;7.75;2.10;;;;;;;;;;5012510;28;21007;-57
2021/03/19 02:39:55;;;;;;;12.45;2.20;;;;;;;;;;5014511;28;20402;-56
2021/03/19 02:42:23;;;;;;;10.98;1.73;;;;;;;;;;5011554;28;20042;-57
2021/03/19 02:44:48;;;;;;;12.00;2.47;;;;;;;;;;5011580;28;20029;-55
2021/03/19 02:47:15;;;;;;;10.90;1.92;;;;;;;;;;5017755;28;20041;-56
2021/03/19 02:49:41;;;;;;;7.40;2.10;;;;;;;;;;5015725;28;20064;-57
2021/03/19 02:52:07;;;;;;;11.98;1.73;;;;;;;;;;5021582;28;20050;-56
2021/03/19 02:54:33;;;;;;;8.77;1.90;;;;;;;;;;5029238;28;20045;-55
2021/03/19 02:56:59;;;;;;;13.63;3.03;;;;;;;;;;5032713;28;20033;-56
2021/03/19 02:59:25;;;;;;;29.13;2.78;;;;;;;;;;5030329;28;20151;-55
2021/03/19 03:01:51;;;;;;;14.98;2.80;;;;;;;;;;5023215;28;20044;-56
2021/03/19 03:04:17;;;;;;;12.40;2.38;;;;;;;;;;5032321;28;20044;-56
2021/03/19 03:06:47;;;;;;;12.48;2.90;;;;;;;;;;5033897;28;20521;-56
2021/03/19 03:09:15;;;;;;;9.73;2.58;;;;;;;;;;5032316;28;20064;-59
2021/03/19 03:11:41;;;;;;;11.18;2.63;;;;;;;;;;5032108;28;20757;-56
2021/03/19 03:14:08;;;;;;;6.88;1.80;;;;;;;;;;5032605;28;20087;-57
2021/03/19 03:16:35;;;;;;;10.48;1.80;;;;;;;;;;5033471;28;20422;-58
2021/03/19 03:19:01;;;;;;;7.13;2.03;;;;;;;;;;5029416;28;20477;-57
2021/03/19 03:21:27;;;;;;;9.88;2.35;;;;;;;;;;5031265;28;20490;-56
2021/03/19 03:23:52;;;;;;;11.82;1.95;;;;;;;;;;5033240;28;20331;-56
2021/03/19 03:26:18;;;;;;;8.45;1.55;;;;;;;;;;5031849;28;20038;-56
2021/03/19 03:28:44;;;;;;;8.77;2.03;;;;;;;;;;5035011;28;20070;-57
2021/03/19 03:31:10;;;;;;;8.13;1.80;;;;;;;;;;5032401;28;20052;-56
2021/03/19 03:33:36;;;;;;;9.02;1.92;;;;;;;;;;5032229;28;20494;-58
2021/03/19 03:36:04;;;;;;;14.98;2.30;;;;;;;;;;5033242;28;20045;-56
2021/03/19 03:38:30;;;;;;;16.10;2.78;;;;;;;;;;5034309;28;20565;-57
2021/03/19 03:40:55;;;;;;;17.58;2.53;;;;;;;;;;5040145;28;20071;-56
2021/03/19 03:43:22;;;;;;;13.95;2.30;;;;;;;;;;5039957;28;20436;-57
2021/03/19 03:45:48;;;;;;;23.23;3.30;;;;;;;;;;5042507;28;20065;-55
2021/03/19 03:48:15;;;;;;;17.52;3.22;;;;;;;;;;5041636;28;20091;-59
2021/03/19 03:50:42;;;;;;;21.80;3.17;;;;;;;;;;5040964;28;20088;-57
2021/03/19 03:53:10;;;;;;;23.85;3.17;;;;;;;;;;5037599;28;20053;-58
2021/03/19 03:55:36;;;;;;;14.27;3.13;;;;;;;;;;5037064;28;20414;-55
2021/03/19 03:58:02;;;;;;;20.90;3.30;;;;;;;;;;5037796;28;20037;-58
2021/03/19 04:00:28;;;;;;;16.73;3.40;;;;;;;;;;5034632;28;20044;-61
2021/03/19 04:02:55;;;;;;;33.67;4.30;;;;;;;;;;5034807;28;21975;-56
2021/03/19 04:05:26;;;;;;;22.63;3.80;;;;;;;;;;5032454;28;20082;-56
2021/03/19 04:07:52;;;;;;;25.90;3.75;;;;;;;;;;5031427;28;20037;-56
2021/03/19 04:10:19;;;;;;;18.42;4.65;;;;;;;;;;5043219;28;20132;-56
2021/03/19 04:12:45;;;;;;;20.70;5.00;;;;;;;;;;5032481;28;20056;-55
2021/03/19 04:15:11;;;;;;;24.77;4.10;;;;;;;;;;5032155;28;20405;-55
2021/03/19 04:17:37;;;;;;;19.50;3.60;;;;;;;;;;5031814;28;20340;-55
2021/03/19 04:20:05;;;;;;;19.85;3.53;;;;;;;;;;5033575;28;20048;-56
2021/03/19 04:22:31;;;;;;;17.67;3.60;;;;;;;;;;5030867;28;20037;-56
2021/03/19 04:24:57;;;;;;;18.30;3.67;;;;;;;;;;5032973;28;20068;-57
2021/03/19 04:27:25;;;;;;;13.13;2.75;;;;;;;;;;5031491;28;20075;-56
2021/03/19 04:29:53;;;;;;;13.63;2.95;;;;;;;;;;5032565;28;20045;-56
2021/03/19 04:32:19;;;;;;;14.55;2.88;;;;;;;;;;5024649;28;20974;-56
2021/03/19 04:34:45;;;;;;;11.00;2.70;;;;;;;;;;5030840;28;20076;-56
2021/03/19 04:37:12;;;;;;;10.70;2.42;;;;;;;;;;5032603;28;20047;-56
2021/03/19 04:39:41;;;;;;;7.60;2.38;;;;;;;;;;5032128;28;21377;-57
2021/03/19 04:42:07;;;;;;;10.40;2.70;;;;;;;;;;5031336;28;20063;-56
2021/03/19 04:44:37;;;;;;;14.00;2.70;;;;;;;;;;5031365;28;20045;-56
2021/03/19 04:47:05;;;;;;;9.98;2.80;;;;;;;;;;5030646;28;20052;-56
2021/03/19 04:49:31;;;;;;;17.63;2.95;;;;;;;;;;5031264;28;20048;-55
2021/03/19 04:51:57;;;;;;;22.42;4.03;;;;;;;;;;5036932;28;20045;-55
2021/03/19 04:54:23;;;;;;;12.82;3.60;;;;;;;;;;5033778;28;20033;-55
2021/03/19 04:56:48;;;;;;;11.05;3.25;;;;;;;;;;5036617;28;20128;-54
2021/03/19 04:59:14;;;;;;;12.75;3.60;;;;;;;;;;5034559;28;20123;-55
2021/03/19 05:01:50;;;;;;;15.73;3.72;;;;;;;;;;5034974;28;20525;-56
2021/03/19 05:04:17;;;;;;;18.20;3.58;;;;;;;;;;5033139;28;20114;-55
2021/03/19 05:06:43;;;;;;;12.80;3.38;;;;;;;;;;5034959;28;20514;-56
2021/03/19 05:09:09;;;;;;;20.45;3.85;;;;;;;;;;5033252;28;20498;-56
2021/03/19 05:11:35;;;;;;;19.05;3.40;;;;;;;;;;5035449;28;20044;-55
2021/03/19 05:14:01;;;;;;;24.73;4.85;;;;;;;;;;5033752;28;20507;-56
2021/03/19 05:16:27;;;;;;;24.50;4.40;;;;;;;;;;5034652;28;20037;-56
2021/03/19 05:18:53;;;;;;;22.98;4.47;;;;;;;;;;5035184;28;20440;-55
2021/03/19 05:21:19;;;;;;;22.38;4.22;;;;;;;;;;5034022;28;20136;-56
2021/03/19 05:23:45;;;;;;;27.15;4.40;;;;;;;;;;5034512;28;20052;-54
2021/03/19 05:26:11;;;;;;;22.80;4.60;;;;;;;;;;5035219;28;20762;-54
2021/03/19 05:28:37;;;;;;;24.73;4.60;;;;;;;;;;5033835;28;20118;-55
2021/03/19 05:31:04;;;;;;;16.00;3.88;;;;;;;;;;5034715;28;20064;-53
2021/03/19 05:33:42;;;;;;;15.38;3.20;;;;;;;;;;5034302;28;20037;-55
2021/03/19 05:36:08;;;;;;;14.73;3.15;;;;;;;;;;5037683;28;20556;-55
2021/03/19 05:38:34;;;;;;;15.43;2.85;;;;;;;;;;5034361;28;20132;-52
2021/03/19 05:41:00;;;;;;;6.88;2.85;;;;;;;;;;5036036;28;20070;-55
2021/03/19 05:43:28;;;;;;;10.95;2.53;;;;;;;;;;5032521;28;20044;-55
2021/03/19 05:45:56;;;;;;;7.95;2.28;;;;;;;;;;5034896;28;20458;-55
2021/03/19 05:48:24;;;;;;;5.65;1.60;;;;;;;;;;5034420;28;20497;-54
2021/03/19 05:50:50;;;;;;;4.97;2.00;;;;;;;;;;5035338;28;20041;-54
2021/03/19 05:53:17;;;;;;;4.07;1.63;;;;;;;;;;5033813;28;20098;-54
2021/03/19 05:55:43;;;;;;;6.97;1.70;;;;;;;;;;5033546;28;20061;-55
2021/03/19 05:58:26;;;;;;;6.95;1.60;;;;;;;;;;5034178;28;20758;-55
2021/03/19 06:00:56;;;;;;;7.13;1.50;;;;;;;;;;5033301;28;20126;-55
2021/03/19 06:03:22;;;;;;;8.18;1.70;;;;;;;;;;5031650;28;20421;-56
2021/03/19 06:05:56;;;;;;;5.43;1.80;;;;;;;;;;5033713;28;20454;-55
2021/03/19 06:08:36;;;;;;;5.47;1.67;;;;;;;;;;5033627;28;20049;-56
2021/03/19 06:11:21;;;;;;;6.85;2.10;;;;;;;;;;5032562;28;20478;-56
2021/03/19 06:13:47;;;;;;;5.28;1.70;;;;;;;;;;5032154;28;20049;-56
2021/03/19 06:16:19;;;;;;;5.85;2.05;;;;;;;;;;5034339;28;20037;-56
2021/03/19 06:18:46;;;;;;;6.43;1.67;;;;;;;;;;5032696;28;20056;-55
2021/03/19 06:21:24;;;;;;;5.80;1.50;;;;;;;;;;5033925;28;20036;-56
2021/03/19 06:24:04;;;;;;;8.18;1.70;;;;;;;;;;5032443;28;20871;-55
2021/03/19 06:26:40;;;;;;;6.75;1.65;;;;;;;;;;5034246;28;20098;-55
2021/03/19 06:29:24;;;;;;;5.75;1.58;;;;;;;;;;5035584;28;20053;-55
2021/03/19 06:32:05;;;;;;;6.63;1.85;;;;;;;;;;5034119;28;20049;-54
2021/03/19 06:34:31;;;;;;;3.90;1.40;;;;;;;;;;5032596;28;20040;-55
2021/03/19 06:37:01;;;;;;;6.20;1.98;;;;;;;;;;5035781;28;20056;-52
2021/03/19 06:39:44;;;;;;;5.38;1.23;;;;;;;;;;5035665;28;20037;-55
2021/03/19 06:42:10;;;;;;;4.38;1.40;;;;;;;;;;5034559;28;20051;-55
2021/03/19 06:44:36;;;;;;;3.83;1.50;;;;;;;;;;5032898;28;20041;-54
2021/03/19 06:47:05;;;;;;;4.20;1.45;;;;;;;;;;5033276;28;20124;-56
2021/03/19 06:49:46;;;;;;;5.05;1.63;;;;;;;;;;5033580;28;20041;-55
2021/03/19 06:52:21;;;;;;;5.22;1.63;;;;;;;;;;5032996;28;20860;-55
2021/03/19 06:54:50;;;;;;;5.38;1.50;;;;;;;;;;5034132;28;20144;-53
2021/03/19 06:57:20;;;;;;;3.45;1.35;;;;;;;;;;5029383;28;21962;-55
2021/03/19 06:59:53;;;;;;;4.43;2.10;;;;;;;;;;5032725;28;20084;-56
2021/03/19 07:02:38;;;;;;;4.72;1.35;;;;;;;;;;5031895;28;20048;-55
2021/03/19 07:05:09;;;;;;;4.90;1.40;;;;;;;;;;5033416;28;20045;-56
2021/03/19 07:07:38;;;;;;;4.68;1.35;;;;;;;;;;5032618;28;20052;-55
2021/03/19 07:10:23;;;;;;;4.05;1.30;;;;;;;;;;5035376;28;20064;-55
2021/03/19 07:12:58;;;;;;;5.13;1.58;;;;;;;;;;5032616;28;20041;-54
2021/03/19 07:15:33;;;;;;;6.28;1.40;;;;;;;;;;5032747;28;20037;-54
2021/03/19 07:18:02;;;;;;;5.13;1.40;;;;;;;;;;5032180;28;20137;-55
2021/03/19 07:20:41;;;;;;;5.45;1.55;;;;;;;;;;5031464;28;20485;-53
2021/03/19 07:23:16;;;;;;;4.57;1.40;;;;;;;;;;5030220;28;20116;-54
2021/03/19 07:26:00;;;;;;;5.00;1.80;;;;;;;;;;5032609;28;20051;-54
2021/03/19 07:28:31;;;;;;;7.95;1.77;;;;;;;;;;5031478;28;20049;-56
2021/03/19 07:31:07;;;;;;;4.25;1.50;;;;;;;;;;5033495;28;20041;-55
2021/03/19 07:33:32;;;;;;;4.78;1.73;;;;;;;;;;5032147;28;20060;-55
2021/03/19 07:35:58;;;;;;;6.30;1.70;;;;;;;;;;5032213;28;20223;-55
2021/03/19 07:38:34;;;;;;;4.60;1.85;;;;;;;;;;5033946;28;20048;-55
2021/03/19 07:41:18;;;;;;;4.47;1.60;;;;;;;;;;5035214;28;20041;-55
2021/03/19 07:44:04;;;;;;;4.50;1.38;;;;;;;;;;5032589;28;20033;-53
2021/03/19 07:46:36;;;;;;;3.78;1.30;;;;;;;;;;5032893;28;20067;-55
2021/03/19 07:49:13;;;;;;;5.28;1.65;;;;;;;;;;5033126;28;20049;-55
2021/03/19 07:52:01;;;;;;;4.40;1.30;;;;;;;;;;5032586;28;20147;-56
2021/03/19 07:54:48;;;;;;;6.13;1.40;;;;;;;;;;5026208;28;20410;-56
2021/03/19 07:57:20;;;;;;;4.53;1.70;;;;;;;;;;5032848;28;20505;-56
2021/03/19 08:00:03;;;;;;;5.20;1.50;;;;;;;;;;5033865;28;20047;-53
2021/03/19 08:02:47;;;;;;;6.53;1.65;;;;;;;;;;5031527;28;20041;-55
2021/03/19 08:05:28;;;;;;;7.13;1.77;;;;;;;;;;5033499;28;20160;-55
2021/03/19 08:08:12;;;;;;;7.03;1.83;;;;;;;;;;5032275;28;20414;-56
2021/03/19 08:10:53;;;;;;;7.15;1.90;;;;;;;;;;5033003;28;20064;-55
2021/03/19 08:13:34;;;;;;;6.90;1.75;;;;;;;;;;5030907;28;20968;-55
2021/03/19 08:16:04;;;;;;;8.07;2.00;;;;;;;;;;5032829;28;20037;-55
2021/03/19 08:18:30;;;;;;;9.32;2.22;;;;;;;;;;5031113;28;20536;-56
2021/03/19 08:21:05;;;;;;;4.72;1.85;;;;;;;;;;5033863;28;20048;-56
2021/03/19 08:23:50;;;;;;;5.68;1.90;;;;;;;;;;5031744;28;20037;-56
2021/03/19 08:26:22;;;;;;;5.05;1.83;;;;;;;;;;5036960;28;20033;-56
2021/03/19 08:29:08;;;;;;;7.00;2.13;;;;;;;;;;5036000;28;20095;-56
2021/03/19 08:31:46;;;;;;;6.00;1.95;;;;;;;;;;5003640;28;20772;-55
2021/03/19 08:34:12;;;;;;;7.72;1.90;;;;;;;;;;5036580;28;20111;-56
2021/03/19 08:36:40;;;;;;;4.63;1.83;;;;;;;;;;5034347;28;20108;-56
2021/03/19 08:39:06;;;;;;;7.38;1.70;;;;;;;;;;5036613;28;20165;-56
2021/03/19 08:41:37;;;;;;;5.30;2.00;;;;;;;;;;5035728;28;20041;-56
2021/03/19 08:44:05;;;;;;;7.47;1.80;;;;;;;;;;5035963;28;20079;-56
2021/03/19 08:46:34;;;;;;;5.38;1.60;;;;;;;;;;5034899;28;20037;-55
2021/03/19 08:49:20;;;;;;;4.30;1.70;;;;;;;;;;5034176;28;20053;-56
2021/03/19 08:51:46;;;;;;;6.97;1.88;;;;;;;;;;5026177;28;20057;-55
2021/03/19 08:54:18;;;;;;;9.27;1.85;;;;;;;;;;5034287;28;20048;-55
2021/03/19 08:56:45;;;;;;;7.72;2.10;;;;;;;;;;5034288;28;20563;-55
2021/03/19 08:59:31;;;;;;;6.65;1.77;;;;;;;;;;5035099;28;20034;-55
2021/03/19 09:01:59;;;;;;;5.25;1.88;;;;;;;;;;5034448;28;20033;-55
2021/03/19 09:04:43;;;;;;;6.85;2.00;;;;;;;;;;5034533;28;20116;-56
2021/03/19 09:07:30;;;;;;;4.63;2.03;;;;;;;;;;5035030;28;20057;-56
2021/03/19 09:10:00;;;;;;;8.15;2.55;;;;;;;;;;5037243;28;20056;-55
2021/03/19 09:12:31;;;;;;;6.53;2.08;;;;;;;;;;5032705;28;20670;-56
2021/03/19 09:15:29;;;;;;;4.25;1.77;;;;;;;;;;5034272;28;20121;-52
2021/03/19 09:18:07;;;;;;;5.28;2.33;;;;;;;;;;5010769;28;20044;-55
2021/03/19 09:20:39;;;;;;;4.07;1.48;;;;;;;;;;5034708;28;20037;-55
2021/03/19 09:23:09;;;;;;;6.68;1.67;;;;;;;;;;5033857;28;20684;-55
2021/03/19 09:25:54;;;;;;;3.90;1.55;;;;;;;;;;5032823;28;20578;-56
2021/03/19 09:28:23;;;;;;;8.20;1.80;;;;;;;;;;5034511;28;20057;-54
2021/03/19 09:30:51;;;;;;;7.22;1.80;;;;;;;;;;5033969;28;20123;-54
2021/03/19 09:33:35;;;;;;;6.60;2.25;;;;;;;;;;5032990;28;20398;-55
2021/03/19 09:36:01;;;;;;;7.20;1.85;;;;;;;;;;5034363;28;20045;-55
2021/03/19 09:38:27;;;;;;;8.95;1.95;;;;;;;;;;5033604;28;20044;-55
2021/03/19 09:41:01;;;;;;;6.28;2.10;;;;;;;;;;5033517;28;20092;-54
2021/03/19 09:43:46;;;;;;;7.05;1.92;;;;;;;;;;5030814;28;20192;-55
2021/03/19 09:46:26;;;;;;;4.55;2.10;;;;;;;;;;5034070;28;20055;-51
2021/03/19 09:48:56;;;;;;;6.30;2.17;;;;;;;;;;5033332;28;20087;-56
2021/03/19 09:51:51;;;;;;;8.85;2.20;;;;;;;;;;5033281;28;20188;-55
2021/03/19 09:54:23;;;;;;;8.40;2.10;;;;;;;;;;5029737;28;20075;-55
2021/03/19 09:56:49;;;;;;;7.40;2.13;;;;;;;;;;5030486;28;20049;-55
2021/03/19 09:59:21;;;;;;;8.32;2.17;;;;;;;;;;5033789;28;20044;-54
2021/03/19 10:01:46;;;;;;;6.10;2.47;;;;;;;;;;5033247;28;20103;-55
2021/03/19 10:04:25;;;;;;;6.45;2.10;;;;;;;;;;5034022;28;20044;-55
2021/03/19 10:06:51;;;;;;;9.88;2.17;;;;;;;;;;5034017;28;20087;-55
2021/03/19 10:09:19;;;;;;;6.03;1.83;;;;;;;;;;5035635;28;20395;-55
2021/03/19 10:12:05;;;;;;;8.18;1.90;;;;;;;;;;5033136;28;20036;-55
2021/03/19 10:14:34;;;;;;;14.75;2.03;;;;;;;;;;5032260;28;20484;-55
2021/03/19 10:17:12;;;;;;;5.60;2.30;;;;;;;;;;5032787;28;20037;-55
2021/03/19 10:19:40;;;;;;;5.72;2.33;;;;;;;;;;5030632;28;20040;-54
2021/03/19 10:22:07;;;;;;;9.23;2.40;;;;;;;;;;5033672;28;20040;-54
2021/03/19 10:24:33;;;;;;;7.15;2.25;;;;;;;;;;5032047;28;20082;-56
2021/03/19 10:27:01;;;;;;;6.85;2.00;;;;;;;;;;5032253;28;20448;-55
2021/03/19 10:29:29;;;;;;;5.15;1.90;;;;;;;;;;5034327;28;20045;-54
2021/03/19 10:31:55;;;;;;;8.65;2.40;;;;;;;;;;5033112;28;20127;-55
2021/03/19 10:34:32;;;;;;;5.78;2.10;;;;;;;;;;5033657;28;20090;-54
2021/03/19 10:37:01;;;;;;;5.78;2.38;;;;;;;;;;5032455;28;20389;-53
2021/03/19 10:39:30;;;;;;;7.80;2.40;;;;;;;;;;5031672;28;20033;-55
2021/03/19 10:42:02;;;;;;;8.32;2.45;;;;;;;;;;5033247;28;20405;-51
2021/03/19 10:44:32;;;;;;;5.65;2.08;;;;;;;;;;5032697;28;20052;-54
2021/03/19 10:47:01;;;;;;;5.65;2.40;;;;;;;;;;5033203;28;20059;-55
2021/03/19 10:49:45;;;;;;;5.70;2.10;;;;;;;;;;5032454;28;20055;-55
2021/03/19 10:52:14;;;;;;;6.32;2.08;;;;;;;;;;5032826;28;20045;-53
2021/03/19 10:54:44;;;;;;;4.30;1.92;;;;;;;;;;5026324;28;20510;-51
2021/03/19 10:57:15;;;;;;;10.25;2.30;;;;;;;;;;5031210;28;20091;-55
2021/03/19 10:59:41;;;;;;;6.13;2.80;;;;;;;;;;5032404;28;20041;-53
2021/03/19 11:02:14;;;;;;;6.38;2.75;;;;;;;;;;5032756;28;20052;-54
2021/03/19 11:04:41;;;;;;;4.93;2.33;;;;;;;;;;5031322;28;20048;-55
2021/03/19 11:07:26;;;;;;;8.52;2.25;;;;;;;;;;5034343;28;20103;-55
2021/03/19 11:10:10;;;;;;;9.32;2.40;;;;;;;;;;5034341;28;20056;-53
2021/03/19 11:12:36;;;;;;;6.07;2.30;;;;;;;;;;5031489;28;20037;-54
2021/03/19 11:15:05;;;;;;;7.30;2.42;;;;;;;;;;5033592;28;20094;-54
2021/03/19 11:17:31;;;;;;;5.78;2.78;;;;;;;;;;5032294;28;20037;-54
2021/03/19 11:19:58;;;;;;;8.80;2.40;;;;;;;;;;5034143;28;20041;-54
2021/03/19 11:22:32;;;;;;;8.05;3.05;;;;;;;;;;5031859;28;20070;-55
2021/03/19 11:25:08;;;;;;;10.48;2.55;;;;;;;;;;5026793;28;20048;-54
2021/03/19 11:27:38;;;;;;;8.05;2.33;;;;;;;;;;5031909;28;20033;-54
2021/03/19 11:30:21;;;;;;;8.75;2.70;;;;;;;;;;5032169;28;20450;-55
2021/03/19 11:32:57;;;;;;;6.70;2.50;;;;;;;;;;5033497;28;20897;-55
2021/03/19 11:35:23;;;;;;;10.45;2.50;;;;;;;;;;5031996;28;20902;-54
2021/03/19 11:37:49;;;;;;;7.38;2.30;;;;;;;;;;5047575;28;20096;-54
2021/03/19 11:40:15;;;;;;;9.77;3.10;;;;;;;;;;5033282;28;20041;-55
2021/03/19 11:42:44;;;;;;;6.80;2.75;;;;;;;;;;5031149;28;20041;-55
2021/03/19 11:45:15;;;;;;;9.10;2.78;;;;;;;;;;5034685;28;20666;-54
2021/03/19 11:47:45;;;;;;;6.72;2.83;;;;;;;;;;5030636;28;20402;-54
2021/03/19 11:50:17;;;;;;;6.35;2.17;;;;;;;;;;5032024;28;20681;-55
2021/03/19 11:52:44;;;;;;;8.43;2.50;;;;;;;;;;5032228;28;20161;-54
2021/03/19 11:55:15;;;;;;;9.05;2.80;;;;;;;;;;5033606;28;20075;-55
2021/03/19 11:57:41;;;;;;;8.73;2.67;;;;;;;;;;5032403;28;20041;-55
2021/03/19 12:00:07;;;;;;;10.05;2.70;;;;;;;;;;5034904;28;20679;-52
2021/03/19 12:02:38;;;;;;;11.48;2.95;;;;;;;;;;5034760;28;20041;-54
2021/03/19 12:05:05;;;;;;;7.30;2.95;;;;;;;;;;5037112;28;20131;-53
2021/03/19 12:07:31;;;;;;;8.43;2.50;;;;;;;;;;5037268;28;20128;-54
2021/03/19 12:09:57;;;;;;;7.97;2.33;;;;;;;;;;5037425;28;20056;-56
2021/03/19 12:12:26;;;;;;;11.43;3.03;;;;;;;;;;5037714;28;20025;-55
2021/03/19 12:14:53;;;;;;;9.90;2.67;;;;;;;;;;5038919;28;20713;-54
2021/03/19 12:17:21;;;;;;;8.95;2.40;;;;;;;;;;5034479;28;20234;-55
2021/03/19 12:19:47;;;;;;;11.73;2.45;;;;;;;;;;5036930;28;20040;-55
2021/03/19 12:22:13;;;;;;;8.15;3.65;;;;;;;;;;5036457;28;20497;-54
2021/03/19 12:24:39;;;;;;;7.18;2.20;;;;;;;;;;5034555;28;20060;-56
2021/03/19 12:27:05;;;;;;;7.57;2.30;;;;;;;;;;5035967;28;20033;-55
2021/03/19 12:29:31;;;;;;;6.75;2.13;;;;;;;;;;5035751;28;20052;-55
2021/03/19 12:31:57;;;;;;;9.45;2.08;;;;;;;;;;5034881;28;20207;-55
2021/03/19 12:34:23;;;;;;;7.50;1.98;;;;;;;;;;5032527;28;20033;-56
2021/03/19 12:36:49;;;;;;;7.30;1.98;;;;;;;;;;5035568;28;20033;-57
2021/03/19 12:39:17;;;;;;;7.88;1.80;;;;;;;;;;5035706;28;20029;-54
2021/03/19 12:41:43;;;;;;;7.22;2.00;;;;;;;;;;5034391;28;20148;-56
2021/03/19 12:44:09;;;;;;;5.80;2.42;;;;;;;;;;5036695;28;22052;-56
2021/03/19 12:46:36;;;;;;;7.68;1.75;;;;;;;;;;5034279;28;20694;-56
2021/03/19 12:49:02;;;;;;;5.18;1.70;;;;;;;;;;5036197;28;20079;-57
2021/03/19 12:51:28;;;;;;;17.77;3.65;;;;;;;;;;5035640;28;20130;-56
2021/03/19 12:53:54;;;;;;;15.95;2.67;;;;;;;;;;5035838;28;20041;-56
2021/03/19 12:56:20;;;;;;;11.88;3.08;;;;;;;;;;5034371;28;20037;-53
2021/03/19 12:58:46;;;;;;;13.90;2.90;;;;;;;;;;5036617;28;20040;-57
2021/03/19 13:01:14;;;;;;;11.60;3.13;;;;;;;;;;5035592;28;20152;-56
2021/03/19 13:03:40;;;;;;;12.05;3.83;;;;;;;;;;5036106;28;20045;-55
2021/03/19 13:06:06;;;;;;;15.32;3.13;;;;;;;;;;5036665;28;20037;-56
2021/03/19 13:08:31;;;;;;;14.20;2.97;;;;;;;;;;5035502;28;20073;-55
2021/03/19 13:10:57;;;;;;;11.48;2.80;;;;;;;;;;5034880;28;20044;-54
2021/03/19 13:13:23;;;;;;;16.23;2.83;;;;;;;;;;5036709;28;20033;-56
2021/03/19 13:15:49;;;;;;;8.65;2.67;;;;;;;;;;5036332;28;20073;-55
2021/03/19 13:18:15;;;;;;;8.73;3.03;;;;;;;;;;5035973;28;20045;-53
2021/03/19 13:20:41;;;;;;;11.48;2.92;;;;;;;;;;5035207;28;20048;-55
2021/03/19 13:23:07;;;;;;;9.43;2.55;;;;;;;;;;5034019;28;20041;-54
2021/03/19 13:25:35;;;;;;;15.05;3.20;;;;;;;;;;5034430;28;20147;-52
2021/03/19 13:28:01;;;;;;;8.45;2.85;;;;;;;;;;5034736;28;20052;-54
2021/03/19 13:30:28;;;;;;;19.30;3.90;;;;;;;;;;5037063;28;20057;-54
2021/03/19 13:32:54;;;;;;;13.05;3.15;;;;;;;;;;5037015;28;20055;-54
2021/03/19 13:35:23;;;;;;;13.07;2.70;;;;;;;;;;5036508;28;20109;-55
2021/03/19 13:37:48;;;;;;;11.65;2.58;;;;;;;;;;5038106;28;20041;-54
2021/03/19 13:40:16;;;;;;;10.93;2.10;;;;;;;;;;5038068;28;20437;-56
2021/03/19 13:42:42;;;;;;;12.52;3.88;;;;;;;;;;5036552;28;20037;-55
2021/03/19 13:45:09;;;;;;;8.88;2.28;;;;;;;;;;5037863;28;20056;-56
2021/03/19 13:47:35;;;;;;;9.90;2.53;;;;;;;;;;5037576;28;20047;-52
2021/03/19 13:50:03;;;;;;;8.15;1.95;;;;;;;;;;5035896;28;20603;-57
2021/03/19 13:52:29;;;;;;;8.65;2.50;;;;;;;;;;5036259;28;20418;-56
2021/03/19 13:54:55;;;;;;;9.88;2.17;;;;;;;;;;5037630;28;20037;-52
2021/03/19 13:57:22;;;;;;;7.38;1.90;;;;;;;;;;5037562;28;20059;-55
2021/03/19 13:59:48;;;;;;;9.95;2.00;;;;;;;;;;5037583;28;20114;-55
2021/03/19 14:02:14;;;;;;;11.63;2.40;;;;;;;;;;5039009;28;20506;-55
2021/03/19 14:04:40;;;;;;;11.20;2.47;;;;;;;;;;5040086;28;20036;-56
2021/03/19 14:07:06;;;;;;;14.35;2.40;;;;;;;;;;5042527;28;20037;-54
2021/03/19 14:09:32;;;;;;;11.70;2.35;;;;;;;;;;5042437;28;20779;-56
2021/03/19 14:11:58;;;;;;;13.65;3.40;;;;;;;;;;5046825;28;20048;-57
2021/03/19 14:14:24;;;;;;;13.07;2.40;;;;;;;;;;5046159;28;20053;-56
2021/03/19 14:16:50;;;;;;;11.27;2.58;;;;;;;;;;5047505;28;20033;-55
2021/03/19 14:19:17;;;;;;;15.40;3.58;;;;;;;;;;5045464;28;20625;-55
2021/03/19 14:21:44;;;;;;;9.65;2.67;;;;;;;;;;5044895;28;20437;-56
2021/03/19 14:24:10;;;;;;;17.42;2.78;;;;;;;;;;5045493;28;20109;-55
2021/03/19 14:26:36;;;;;;;12.07;2.33;;;;;;;;;;5043713;28;20037;-55
2021/03/19 14:29:03;;;;;;;9.95;2.88;;;;;;;;;;5042742;28;20065;-52
2021/03/19 14:31:30;;;;;;;12.10;2.60;;;;;;;;;;5040648;28;20041;-55
2021/03/19 14:33:56;;;;;;;11.55;3.95;;;;;;;;;;5039515;28;20029;-53
2021/03/19 14:36:23;;;;;;;9.27;2.40;;;;;;;;;;5035760;28;20144;-54
2021/03/19 14:38:49;;;;;;;8.63;1.95;;;;;;;;;;5035381;28;20041;-53
2021/03/19 14:41:15;;;;;;;9.35;2.10;;;;;;;;;;5034169;28;20037;-56
2021/03/19 14:43:41;;;;;;;8.32;2.20;;;;;;;;;;5032835;28;20037;-54
2021/03/19 14:46:07;;;;;;;8.90;2.38;;;;;;;;;;5031402;28;20056;-56
2021/03/19 14:48:36;;;;;;;12.20;2.17;;;;;;;;;;5033095;28;20151;-55
2021/03/19 14:51:04;;;;;;;11.82;1.90;;;;;;;;;;5034796;28;20044;-56
2021/03/19 14:53:30;;;;;;;11.68;2.22;;;;;;;;;;5032537;28;20187;-56
2021/03/19 14:55:56;;;;;;;17.10;2.25;;;;;;;;;;5032538;28;20037;-56